sensor_id;sensor_type;location;lat;lon;timestamp;P1;durP1;ratioP1;P2;durP2;ratioP2
53263;SDS011;39153;52.680;6.172;2024-01-07T00:00:09;25.20;;;12.13;;
53263;SDS011;39153;52.680;6.172;2024-01-07T00:02:35;26.35;;;13.98;;
53263;SDS011;39153;52.680;6.172;2024-01-07T00:05:01;26.08;;;12.25;;
53263;SDS011;39153;52.680;6.172;2024-01-07T00:07:27;28.25;;;14.50;;
53263;SDS011;39153;52.680;6.172;2024-01-07T00:09:52;26.17;;;13.20;;
53263;SDS011;39153;52.680;6.172;2024-01-07T00:12:19;23.27;;;12.75;;
53263;SDS011;39153;52.680;6.172;2024-01-07T00:14:44;29.48;;;14.00;;
53263;SDS011;39153;52.680;6.172;2024-01-07T00:17:10;29.60;;;14.90;;
53263;SDS011;39153;52.680;6.172;2024-01-07T00:19:36;28.40;;;14.27;;
53263;SDS011;39153;52.680;6.172;2024-01-07T00:22:02;30.02;;;14.52;;
53263;SDS011;39153;52.680;6.172;2024-01-07T00:24:28;26.42;;;13.02;;
53263;SDS011;39153;52.680;6.172;2024-01-07T00:26:54;27.63;;;14.55;;
53263;SDS011;39153;52.680;6.172;2024-01-07T00:29:20;24.77;;;12.90;;
53263;SDS011;39153;52.680;6.172;2024-01-07T00:31:46;26.92;;;13.55;;
53263;SDS011;39153;52.680;6.172;2024-01-07T00:34:12;26.92;;;12.70;;
53263;SDS011;39153;52.680;6.172;2024-01-07T00:36:38;24.42;;;13.00;;
53263;SDS011;39153;52.680;6.172;2024-01-07T00:39:03;26.90;;;13.27;;
53263;SDS011;39153;52.680;6.172;2024-01-07T00:41:29;22.60;;;12.50;;
53263;SDS011;39153;52.680;6.172;2024-01-07T00:43:58;25.85;;;12.60;;
53263;SDS011;39153;52.680;6.172;2024-01-07T00:46:23;23.25;;;11.98;;
53263;SDS011;39153;52.680;6.172;2024-01-07T00:48:49;24.40;;;13.07;;
53263;SDS011;39153;52.680;6.172;2024-01-07T00:51:15;25.38;;;13.35;;
53263;SDS011;39153;52.680;6.172;2024-01-07T00:53:40;24.92;;;12.48;;
53263;SDS011;39153;52.680;6.172;2024-01-07T00:56:06;29.70;;;14.63;;
53263;SDS011;39153;52.680;6.172;2024-01-07T00:58:32;27.20;;;12.93;;
53263;SDS011;39153;52.680;6.172;2024-01-07T01:00:58;26.30;;;13.52;;
53263;SDS011;39153;52.680;6.172;2024-01-07T01:03:25;27.80;;;13.32;;
53263;SDS011;39153;52.680;6.172;2024-01-07T01:05:51;26.85;;;13.40;;
53263;SDS011;39153;52.680;6.172;2024-01-07T01:08:18;29.38;;;14.32;;
53263;SDS011;39153;52.680;6.172;2024-01-07T01:10:43;23.65;;;12.57;;
53263;SDS011;39153;52.680;6.172;2024-01-07T01:13:09;28.35;;;13.93;;
53263;SDS011;39153;52.680;6.172;2024-01-07T01:15:35;24.40;;;12.55;;
53263;SDS011;39153;52.680;6.172;2024-01-07T01:18:01;24.00;;;12.70;;
53263;SDS011;39153;52.680;6.172;2024-01-07T01:20:26;26.92;;;13.32;;
53263;SDS011;39153;52.680;6.172;2024-01-07T01:22:53;22.42;;;11.85;;
53263;SDS011;39153;52.680;6.172;2024-01-07T01:25:19;25.73;;;12.15;;
53263;SDS011;39153;52.680;6.172;2024-01-07T01:27:44;25.52;;;11.77;;
53263;SDS011;39153;52.680;6.172;2024-01-07T01:30:10;23.67;;;11.80;;
53263;SDS011;39153;52.680;6.172;2024-01-07T01:32:36;25.77;;;12.30;;
53263;SDS011;39153;52.680;6.172;2024-01-07T01:35:04;23.73;;;11.75;;
53263;SDS011;39153;52.680;6.172;2024-01-07T01:37:30;24.25;;;12.23;;
53263;SDS011;39153;52.680;6.172;2024-01-07T01:39:58;24.58;;;11.75;;
53263;SDS011;39153;52.680;6.172;2024-01-07T01:42:24;21.80;;;11.57;;
53263;SDS011;39153;52.680;6.172;2024-01-07T01:44:50;20.52;;;10.30;;
53263;SDS011;39153;52.680;6.172;2024-01-07T01:47:17;21.05;;;10.30;;
53263;SDS011;39153;52.680;6.172;2024-01-07T01:49:43;20.85;;;10.63;;
53263;SDS011;39153;52.680;6.172;2024-01-07T01:52:10;22.30;;;10.75;;
53263;SDS011;39153;52.680;6.172;2024-01-07T01:54:37;19.08;;;9.52;;
53263;SDS011;39153;52.680;6.172;2024-01-07T01:57:03;19.60;;;9.85;;
53263;SDS011;39153;52.680;6.172;2024-01-07T01:59:30;21.70;;;9.85;;
53263;SDS011;39153;52.680;6.172;2024-01-07T02:01:58;21.65;;;9.38;;
53263;SDS011;39153;52.680;6.172;2024-01-07T02:04:24;22.98;;;10.45;;
53263;SDS011;39153;52.680;6.172;2024-01-07T02:06:50;19.40;;;10.05;;
53263;SDS011;39153;52.680;6.172;2024-01-07T02:09:16;24.60;;;11.90;;
53263;SDS011;39153;52.680;6.172;2024-01-07T02:11:42;21.73;;;11.23;;
53263;SDS011;39153;52.680;6.172;2024-01-07T02:14:07;22.85;;;10.98;;
53263;SDS011;39153;52.680;6.172;2024-01-07T02:16:33;20.65;;;11.05;;
53263;SDS011;39153;52.680;6.172;2024-01-07T02:18:59;20.48;;;10.48;;
53263;SDS011;39153;52.680;6.172;2024-01-07T02:21:24;25.70;;;12.02;;
53263;SDS011;39153;52.680;6.172;2024-01-07T02:23:50;21.10;;;11.38;;
53263;SDS011;39153;52.680;6.172;2024-01-07T02:26:15;26.45;;;13.32;;
53263;SDS011;39153;52.680;6.172;2024-01-07T02:28:41;23.40;;;11.32;;
53263;SDS011;39153;52.680;6.172;2024-01-07T02:31:07;24.92;;;12.38;;
53263;SDS011;39153;52.680;6.172;2024-01-07T02:33:32;25.48;;;11.73;;
53263;SDS011;39153;52.680;6.172;2024-01-07T02:35:58;23.90;;;12.48;;
53263;SDS011;39153;52.680;6.172;2024-01-07T02:38:24;22.52;;;12.20;;
53263;SDS011;39153;52.680;6.172;2024-01-07T02:40:49;25.70;;;12.50;;
53263;SDS011;39153;52.680;6.172;2024-01-07T02:43:15;23.60;;;12.68;;
53263;SDS011;39153;52.680;6.172;2024-01-07T02:45:41;22.15;;;11.73;;
53263;SDS011;39153;52.680;6.172;2024-01-07T02:48:06;22.98;;;11.80;;
53263;SDS011;39153;52.680;6.172;2024-01-07T02:50:32;23.42;;;11.60;;
53263;SDS011;39153;52.680;6.172;2024-01-07T02:52:58;22.77;;;11.50;;
53263;SDS011;39153;52.680;6.172;2024-01-07T02:55:24;19.65;;;10.85;;
53263;SDS011;39153;52.680;6.172;2024-01-07T02:57:49;24.77;;;13.05;;
53263;SDS011;39153;52.680;6.172;2024-01-07T03:00:15;22.35;;;11.13;;
53263;SDS011;39153;52.680;6.172;2024-01-07T03:02:41;21.52;;;10.57;;
53263;SDS011;39153;52.680;6.172;2024-01-07T03:05:07;19.92;;;11.02;;
53263;SDS011;39153;52.680;6.172;2024-01-07T03:07:33;19.80;;;10.70;;
53263;SDS011;39153;52.680;6.172;2024-01-07T03:09:58;20.98;;;11.23;;
53263;SDS011;39153;52.680;6.172;2024-01-07T03:12:24;22.05;;;10.85;;
53263;SDS011;39153;52.680;6.172;2024-01-07T03:14:50;22.77;;;11.25;;
53263;SDS011;39153;52.680;6.172;2024-01-07T03:17:15;22.55;;;11.25;;
53263;SDS011;39153;52.680;6.172;2024-01-07T03:19:42;21.65;;;11.63;;
53263;SDS011;39153;52.680;6.172;2024-01-07T03:22:08;20.05;;;10.10;;
53263;SDS011;39153;52.680;6.172;2024-01-07T03:24:34;22.55;;;12.30;;
53263;SDS011;39153;52.680;6.172;2024-01-07T03:26:59;19.45;;;10.05;;
53263;SDS011;39153;52.680;6.172;2024-01-07T03:29:25;21.80;;;10.45;;
53263;SDS011;39153;52.680;6.172;2024-01-07T03:31:51;22.08;;;10.70;;
53263;SDS011;39153;52.680;6.172;2024-01-07T03:34:18;20.15;;;10.88;;
53263;SDS011;39153;52.680;6.172;2024-01-07T03:36:44;18.73;;;11.15;;
53263;SDS011;39153;52.680;6.172;2024-01-07T03:39:09;19.83;;;10.13;;
53263;SDS011;39153;52.680;6.172;2024-01-07T03:41:35;18.30;;;10.57;;
53263;SDS011;39153;52.680;6.172;2024-01-07T03:44:01;22.05;;;10.75;;
53263;SDS011;39153;52.680;6.172;2024-01-07T03:46:27;20.20;;;9.65;;
53263;SDS011;39153;52.680;6.172;2024-01-07T03:48:52;20.13;;;11.40;;
53263;SDS011;39153;52.680;6.172;2024-01-07T03:51:18;19.67;;;9.90;;
53263;SDS011;39153;52.680;6.172;2024-01-07T03:53:44;18.50;;;9.75;;
53263;SDS011;39153;52.680;6.172;2024-01-07T03:56:09;20.83;;;9.85;;
53263;SDS011;39153;52.680;6.172;2024-01-07T03:58:35;20.42;;;10.48;;
53263;SDS011;39153;52.680;6.172;2024-01-07T04:01:01;21.58;;;10.57;;
53263;SDS011;39153;52.680;6.172;2024-01-07T04:03:27;21.90;;;9.52;;
53263;SDS011;39153;52.680;6.172;2024-01-07T04:05:52;18.63;;;9.40;;
53263;SDS011;39153;52.680;6.172;2024-01-07T04:08:18;19.08;;;9.10;;
53263;SDS011;39153;52.680;6.172;2024-01-07T04:10:44;21.40;;;9.88;;
53263;SDS011;39153;52.680;6.172;2024-01-07T04:13:09;17.85;;;9.63;;
53263;SDS011;39153;52.680;6.172;2024-01-07T04:15:35;18.90;;;10.15;;
53263;SDS011;39153;52.680;6.172;2024-01-07T04:18:01;20.48;;;9.60;;
53263;SDS011;39153;52.680;6.172;2024-01-07T04:20:28;17.50;;;9.15;;
53263;SDS011;39153;52.680;6.172;2024-01-07T04:22:54;18.75;;;9.32;;
53263;SDS011;39153;52.680;6.172;2024-01-07T04:25:20;18.77;;;9.48;;
53263;SDS011;39153;52.680;6.172;2024-01-07T04:27:46;18.67;;;9.50;;
53263;SDS011;39153;52.680;6.172;2024-01-07T04:30:12;17.42;;;10.10;;
53263;SDS011;39153;52.680;6.172;2024-01-07T04:32:37;17.25;;;8.43;;
53263;SDS011;39153;52.680;6.172;2024-01-07T04:35:03;20.58;;;9.93;;
53263;SDS011;39153;52.680;6.172;2024-01-07T04:37:29;17.27;;;8.38;;
53263;SDS011;39153;52.680;6.172;2024-01-07T04:39:55;19.67;;;9.52;;
53263;SDS011;39153;52.680;6.172;2024-01-07T04:42:20;18.75;;;9.20;;
53263;SDS011;39153;52.680;6.172;2024-01-07T04:44:46;19.60;;;9.48;;
53263;SDS011;39153;52.680;6.172;2024-01-07T04:47:28;19.45;;;9.43;;
53263;SDS011;39153;52.680;6.172;2024-01-07T04:49:55;18.02;;;8.95;;
53263;SDS011;39153;52.680;6.172;2024-01-07T04:52:22;17.48;;;8.70;;
53263;SDS011;39153;52.680;6.172;2024-01-07T04:54:48;19.67;;;9.48;;
53263;SDS011;39153;52.680;6.172;2024-01-07T04:57:20;17.60;;;8.00;;
53263;SDS011;39153;52.680;6.172;2024-01-07T04:59:47;18.40;;;9.07;;
53263;SDS011;39153;52.680;6.172;2024-01-07T05:02:13;18.73;;;7.90;;
53263;SDS011;39153;52.680;6.172;2024-01-07T05:04:39;16.27;;;9.05;;
53263;SDS011;39153;52.680;6.172;2024-01-07T05:07:06;14.98;;;7.63;;
53263;SDS011;39153;52.680;6.172;2024-01-07T05:09:32;18.13;;;8.40;;
53263;SDS011;39153;52.680;6.172;2024-01-07T05:11:58;17.05;;;8.65;;
53263;SDS011;39153;52.680;6.172;2024-01-07T05:14:24;15.30;;;8.77;;
53263;SDS011;39153;52.680;6.172;2024-01-07T05:16:50;14.75;;;7.75;;
53263;SDS011;39153;52.680;6.172;2024-01-07T05:19:16;14.43;;;7.82;;
53263;SDS011;39153;52.680;6.172;2024-01-07T05:21:41;14.77;;;6.97;;
53263;SDS011;39153;52.680;6.172;2024-01-07T05:24:07;13.60;;;7.72;;
53263;SDS011;39153;52.680;6.172;2024-01-07T05:26:39;15.35;;;7.50;;
53263;SDS011;39153;52.680;6.172;2024-01-07T05:29:06;14.57;;;7.10;;
53263;SDS011;39153;52.680;6.172;2024-01-07T05:31:32;16.15;;;7.57;;
53263;SDS011;39153;52.680;6.172;2024-01-07T05:33:58;15.02;;;7.75;;
53263;SDS011;39153;52.680;6.172;2024-01-07T05:36:23;12.98;;;7.20;;
53263;SDS011;39153;52.680;6.172;2024-01-07T05:38:49;12.93;;;6.70;;
53263;SDS011;39153;52.680;6.172;2024-01-07T05:41:15;16.17;;;7.38;;
53263;SDS011;39153;52.680;6.172;2024-01-07T05:43:40;12.77;;;6.35;;
53263;SDS011;39153;52.680;6.172;2024-01-07T05:46:06;14.15;;;7.72;;
53263;SDS011;39153;52.680;6.172;2024-01-07T05:48:45;12.10;;;5.80;;
53263;SDS011;39153;52.680;6.172;2024-01-07T05:51:13;14.15;;;6.63;;
53263;SDS011;39153;52.680;6.172;2024-01-07T05:53:39;11.65;;;6.07;;
53263;SDS011;39153;52.680;6.172;2024-01-07T05:56:05;10.98;;;6.15;;
53263;SDS011;39153;52.680;6.172;2024-01-07T05:58:31;13.52;;;6.10;;
53263;SDS011;39153;52.680;6.172;2024-01-07T06:00:57;16.10;;;6.10;;
53263;SDS011;39153;52.680;6.172;2024-01-07T06:03:23;12.05;;;6.10;;
53263;SDS011;39153;52.680;6.172;2024-01-07T06:05:49;12.30;;;5.95;;
53263;SDS011;39153;52.680;6.172;2024-01-07T06:08:14;11.85;;;4.95;;
53263;SDS011;39153;52.680;6.172;2024-01-07T06:10:40;11.80;;;5.00;;
53263;SDS011;39153;52.680;6.172;2024-01-07T06:13:06;12.52;;;5.43;;
53263;SDS011;39153;52.680;6.172;2024-01-07T06:15:32;9.43;;;5.40;;
53263;SDS011;39153;52.680;6.172;2024-01-07T06:17:57;10.50;;;5.35;;
53263;SDS011;39153;52.680;6.172;2024-01-07T06:20:23;10.57;;;5.50;;
53263;SDS011;39153;52.680;6.172;2024-01-07T06:22:49;9.02;;;4.78;;
53263;SDS011;39153;52.680;6.172;2024-01-07T06:25:15;8.93;;;4.88;;
53263;SDS011;39153;52.680;6.172;2024-01-07T06:27:41;9.10;;;4.50;;
53263;SDS011;39153;52.680;6.172;2024-01-07T06:30:07;7.65;;;4.10;;
53263;SDS011;39153;52.680;6.172;2024-01-07T06:32:33;7.53;;;3.67;;
53263;SDS011;39153;52.680;6.172;2024-01-07T06:34:59;9.73;;;4.55;;
53263;SDS011;39153;52.680;6.172;2024-01-07T06:37:25;10.40;;;4.30;;
53263;SDS011;39153;52.680;6.172;2024-01-07T06:39:54;8.82;;;3.95;;
53263;SDS011;39153;52.680;6.172;2024-01-07T06:42:20;8.85;;;3.55;;
53263;SDS011;39153;52.680;6.172;2024-01-07T06:44:45;8.45;;;3.60;;
53263;SDS011;39153;52.680;6.172;2024-01-07T06:47:11;7.63;;;3.78;;
53263;SDS011;39153;52.680;6.172;2024-01-07T06:49:37;6.78;;;3.72;;
53263;SDS011;39153;52.680;6.172;2024-01-07T06:52:04;6.13;;;3.00;;
53263;SDS011;39153;52.680;6.172;2024-01-07T06:54:30;7.25;;;3.70;;
53263;SDS011;39153;52.680;6.172;2024-01-07T06:56:56;5.82;;;3.10;;
53263;SDS011;39153;52.680;6.172;2024-01-07T06:59:21;11.00;;;3.50;;
53263;SDS011;39153;52.680;6.172;2024-01-07T07:01:47;8.88;;;3.15;;
53263;SDS011;39153;52.680;6.172;2024-01-07T07:04:13;6.55;;;3.47;;
53263;SDS011;39153;52.680;6.172;2024-01-07T07:06:38;8.73;;;3.75;;
53263;SDS011;39153;52.680;6.172;2024-01-07T07:09:04;8.90;;;3.38;;
53263;SDS011;39153;52.680;6.172;2024-01-07T07:11:29;5.63;;;2.95;;
53263;SDS011;39153;52.680;6.172;2024-01-07T07:13:56;6.82;;;3.05;;
53263;SDS011;39153;52.680;6.172;2024-01-07T07:16:21;7.22;;;2.90;;
53263;SDS011;39153;52.680;6.172;2024-01-07T07:18:48;6.10;;;3.10;;
53263;SDS011;39153;52.680;6.172;2024-01-07T07:21:13;6.47;;;3.25;;
53263;SDS011;39153;52.680;6.172;2024-01-07T07:23:39;4.85;;;2.70;;
53263;SDS011;39153;52.680;6.172;2024-01-07T07:26:05;6.60;;;3.17;;
53263;SDS011;39153;52.680;6.172;2024-01-07T07:28:32;7.03;;;2.70;;
53263;SDS011;39153;52.680;6.172;2024-01-07T07:30:57;5.68;;;2.60;;
53263;SDS011;39153;52.680;6.172;2024-01-07T07:33:23;5.78;;;2.55;;
53263;SDS011;39153;52.680;6.172;2024-01-07T07:35:49;8.98;;;2.67;;
53263;SDS011;39153;52.680;6.172;2024-01-07T07:38:15;5.38;;;2.58;;
53263;SDS011;39153;52.680;6.172;2024-01-07T07:40:40;6.97;;;2.60;;
53263;SDS011;39153;52.680;6.172;2024-01-07T07:43:07;7.30;;;2.95;;
53263;SDS011;39153;52.680;6.172;2024-01-07T07:45:33;6.13;;;2.58;;
53263;SDS011;39153;52.680;6.172;2024-01-07T07:47:59;8.13;;;3.42;;
53263;SDS011;39153;52.680;6.172;2024-01-07T07:50:25;6.05;;;2.63;;
53263;SDS011;39153;52.680;6.172;2024-01-07T07:52:51;4.30;;;2.40;;
53263;SDS011;39153;52.680;6.172;2024-01-07T07:55:16;6.13;;;2.67;;
53263;SDS011;39153;52.680;6.172;2024-01-07T07:57:42;5.80;;;2.85;;
53263;SDS011;39153;52.680;6.172;2024-01-07T08:00:08;6.70;;;2.88;;
53263;SDS011;39153;52.680;6.172;2024-01-07T08:02:37;7.20;;;2.85;;
53263;SDS011;39153;52.680;6.172;2024-01-07T08:05:04;5.80;;;2.38;;
53263;SDS011;39153;52.680;6.172;2024-01-07T08:07:30;4.57;;;2.20;;
53263;SDS011;39153;52.680;6.172;2024-01-07T08:09:55;8.43;;;3.17;;
53263;SDS011;39153;52.680;6.172;2024-01-07T08:12:23;5.07;;;2.67;;
53263;SDS011;39153;52.680;6.172;2024-01-07T08:14:48;5.00;;;2.08;;
53263;SDS011;39153;52.680;6.172;2024-01-07T08:17:14;5.13;;;2.10;;
53263;SDS011;39153;52.680;6.172;2024-01-07T08:19:40;5.45;;;2.47;;
53263;SDS011;39153;52.680;6.172;2024-01-07T08:22:06;5.80;;;2.35;;
53263;SDS011;39153;52.680;6.172;2024-01-07T08:24:31;5.05;;;2.00;;
53263;SDS011;39153;52.680;6.172;2024-01-07T08:26:57;4.10;;;2.38;;
53263;SDS011;39153;52.680;6.172;2024-01-07T08:29:23;6.05;;;2.22;;
53263;SDS011;39153;52.680;6.172;2024-01-07T08:31:48;5.53;;;2.03;;
53263;SDS011;39153;52.680;6.172;2024-01-07T08:34:14;6.35;;;2.38;;
53263;SDS011;39153;52.680;6.172;2024-01-07T08:36:41;5.28;;;2.08;;
53263;SDS011;39153;52.680;6.172;2024-01-07T08:39:06;6.22;;;2.15;;
53263;SDS011;39153;52.680;6.172;2024-01-07T08:41:33;5.32;;;2.13;;
53263;SDS011;39153;52.680;6.172;2024-01-07T08:43:59;5.97;;;2.35;;
53263;SDS011;39153;52.680;6.172;2024-01-07T08:46:24;5.60;;;2.30;;
53263;SDS011;39153;52.680;6.172;2024-01-07T08:48:50;6.13;;;2.67;;
53263;SDS011;39153;52.680;6.172;2024-01-07T08:51:16;5.72;;;2.28;;
53263;SDS011;39153;52.680;6.172;2024-01-07T08:53:42;6.30;;;2.20;;
53263;SDS011;39153;52.680;6.172;2024-01-07T08:56:07;6.30;;;2.00;;
53263;SDS011;39153;52.680;6.172;2024-01-07T08:58:33;6.00;;;2.10;;
53263;SDS011;39153;52.680;6.172;2024-01-07T09:00:59;5.75;;;1.85;;
53263;SDS011;39153;52.680;6.172;2024-01-07T09:03:25;5.13;;;1.92;;
53263;SDS011;39153;52.680;6.172;2024-01-07T09:05:51;6.53;;;2.47;;
53263;SDS011;39153;52.680;6.172;2024-01-07T09:08:16;6.63;;;3.00;;
53263;SDS011;39153;52.680;6.172;2024-01-07T09:10:42;7.28;;;2.08;;
53263;SDS011;39153;52.680;6.172;2024-01-07T09:13:08;5.15;;;1.92;;
53263;SDS011;39153;52.680;6.172;2024-01-07T09:15:34;4.18;;;1.70;;
53263;SDS011;39153;52.680;6.172;2024-01-07T09:17:59;3.95;;;1.50;;
53263;SDS011;39153;52.680;6.172;2024-01-07T09:20:25;5.50;;;2.10;;
53263;SDS011;39153;52.680;6.172;2024-01-07T09:22:50;3.83;;;1.77;;
53263;SDS011;39153;52.680;6.172;2024-01-07T09:25:16;4.05;;;1.70;;
53263;SDS011;39153;52.680;6.172;2024-01-07T09:27:42;3.30;;;1.65;;
53263;SDS011;39153;52.680;6.172;2024-01-07T09:30:08;4.18;;;1.85;;
53263;SDS011;39153;52.680;6.172;2024-01-07T09:32:40;4.50;;;1.92;;
53263;SDS011;39153;52.680;6.172;2024-01-07T09:35:06;7.63;;;2.60;;
53263;SDS011;39153;52.680;6.172;2024-01-07T09:37:32;5.15;;;1.80;;
53263;SDS011;39153;52.680;6.172;2024-01-07T09:39:58;4.72;;;1.60;;
53263;SDS011;39153;52.680;6.172;2024-01-07T09:42:23;4.70;;;1.77;;
53263;SDS011;39153;52.680;6.172;2024-01-07T09:44:50;4.28;;;1.40;;
53263;SDS011;39153;52.680;6.172;2024-01-07T09:47:16;4.38;;;2.25;;
53263;SDS011;39153;52.680;6.172;2024-01-07T09:49:42;4.88;;;2.30;;
53263;SDS011;39153;52.680;6.172;2024-01-07T09:52:09;6.47;;;1.95;;
53263;SDS011;39153;52.680;6.172;2024-01-07T09:54:39;4.82;;;1.90;;
53263;SDS011;39153;52.680;6.172;2024-01-07T09:57:06;4.20;;;1.70;;
53263;SDS011;39153;52.680;6.172;2024-01-07T09:59:33;5.80;;;1.98;;
53263;SDS011;39153;52.680;6.172;2024-01-07T10:02:02;4.63;;;1.67;;
53263;SDS011;39153;52.680;6.172;2024-01-07T10:04:28;4.50;;;1.80;;
53263;SDS011;39153;52.680;6.172;2024-01-07T10:06:55;4.20;;;1.90;;
53263;SDS011;39153;52.680;6.172;2024-01-07T10:09:25;4.05;;;1.98;;
53263;SDS011;39153;52.680;6.172;2024-01-07T10:11:54;3.90;;;1.70;;
53263;SDS011;39153;52.680;6.172;2024-01-07T10:14:20;5.82;;;1.65;;
53263;SDS011;39153;52.680;6.172;2024-01-07T10:16:51;5.55;;;1.95;;
53263;SDS011;39153;52.680;6.172;2024-01-07T10:19:20;7.88;;;1.92;;
53263;SDS011;39153;52.680;6.172;2024-01-07T10:21:46;4.13;;;1.70;;
53263;SDS011;39153;52.680;6.172;2024-01-07T10:24:23;3.42;;;1.48;;
53263;SDS011;39153;52.680;6.172;2024-01-07T10:26:48;3.38;;;1.50;;
53263;SDS011;39153;52.680;6.172;2024-01-07T10:29:14;4.97;;;1.45;;
53263;SDS011;39153;52.680;6.172;2024-01-07T10:31:41;3.35;;;1.55;;
53263;SDS011;39153;52.680;6.172;2024-01-07T10:34:08;2.95;;;1.42;;
53263;SDS011;39153;52.680;6.172;2024-01-07T10:36:34;3.40;;;1.40;;
53263;SDS011;39153;52.680;6.172;2024-01-07T10:39:00;4.75;;;1.60;;
53263;SDS011;39153;52.680;6.172;2024-01-07T10:41:27;3.05;;;1.40;;
53263;SDS011;39153;52.680;6.172;2024-01-07T10:43:55;3.63;;;1.40;;
53263;SDS011;39153;52.680;6.172;2024-01-07T10:46:20;4.88;;;1.60;;
53263;SDS011;39153;52.680;6.172;2024-01-07T10:48:54;4.22;;;1.40;;
53263;SDS011;39153;52.680;6.172;2024-01-07T10:51:24;4.82;;;1.73;;
53263;SDS011;39153;52.680;6.172;2024-01-07T10:53:53;5.10;;;1.50;;
53263;SDS011;39153;52.680;6.172;2024-01-07T10:56:24;3.17;;;1.50;;
53263;SDS011;39153;52.680;6.172;2024-01-07T10:58:54;3.47;;;1.60;;
53263;SDS011;39153;52.680;6.172;2024-01-07T11:01:21;4.25;;;1.42;;
53263;SDS011;39153;52.680;6.172;2024-01-07T11:09:31;4.63;;;1.42;;
53263;SDS011;39153;52.680;6.172;2024-01-07T11:12:02;4.07;;;1.40;;
53263;SDS011;39153;52.680;6.172;2024-01-07T11:14:36;4.55;;;1.60;;
53263;SDS011;39153;52.680;6.172;2024-01-07T11:17:12;3.17;;;1.25;;
53263;SDS011;39153;52.680;6.172;2024-01-07T11:19:50;2.85;;;1.30;;
53263;SDS011;39153;52.680;6.172;2024-01-07T11:22:25;2.70;;;1.10;;
53263;SDS011;39153;52.680;6.172;2024-01-07T11:24:58;4.95;;;1.20;;
53263;SDS011;39153;52.680;6.172;2024-01-07T11:27:26;2.50;;;1.20;;
53263;SDS011;39153;52.680;6.172;2024-01-07T11:29:58;6.05;;;1.55;;
53263;SDS011;39153;52.680;6.172;2024-01-07T11:32:46;2.42;;;1.13;;
53263;SDS011;39153;52.680;6.172;2024-01-07T11:35:12;2.58;;;1.08;;
53263;SDS011;39153;52.680;6.172;2024-01-07T11:37:38;4.82;;;1.25;;
53263;SDS011;39153;52.680;6.172;2024-01-07T11:40:05;2.97;;;1.35;;
53263;SDS011;39153;52.680;6.172;2024-01-07T11:42:32;3.05;;;1.30;;
53263;SDS011;39153;52.680;6.172;2024-01-07T11:44:57;3.58;;;1.75;;
53263;SDS011;39153;52.680;6.172;2024-01-07T11:47:24;6.28;;;1.95;;
53263;SDS011;39153;52.680;6.172;2024-01-07T11:49:53;4.93;;;1.50;;
53263;SDS011;39153;52.680;6.172;2024-01-07T11:52:19;4.22;;;1.60;;
53263;SDS011;39153;52.680;6.172;2024-01-07T11:54:46;4.97;;;1.88;;
53263;SDS011;39153;52.680;6.172;2024-01-07T11:57:12;4.43;;;1.70;;
53263;SDS011;39153;52.680;6.172;2024-01-07T11:59:38;4.47;;;1.50;;
53263;SDS011;39153;52.680;6.172;2024-01-07T12:02:04;5.07;;;1.67;;
53263;SDS011;39153;52.680;6.172;2024-01-07T12:04:31;4.47;;;1.70;;
53263;SDS011;39153;52.680;6.172;2024-01-07T12:06:57;3.63;;;1.52;;
53263;SDS011;39153;52.680;6.172;2024-01-07T12:09:23;3.65;;;1.60;;
53263;SDS011;39153;52.680;6.172;2024-01-07T12:11:49;3.88;;;1.90;;
53263;SDS011;39153;52.680;6.172;2024-01-07T12:14:15;3.38;;;1.63;;
53263;SDS011;39153;52.680;6.172;2024-01-07T12:16:42;5.18;;;2.20;;
53263;SDS011;39153;52.680;6.172;2024-01-07T12:19:08;3.95;;;1.45;;
53263;SDS011;39153;52.680;6.172;2024-01-07T12:21:35;3.30;;;1.52;;
53263;SDS011;39153;52.680;6.172;2024-01-07T12:24:01;3.45;;;1.50;;
53263;SDS011;39153;52.680;6.172;2024-01-07T12:26:27;5.57;;;1.90;;
53263;SDS011;39153;52.680;6.172;2024-01-07T12:28:53;4.55;;;1.70;;
53263;SDS011;39153;52.680;6.172;2024-01-07T12:31:20;3.47;;;1.60;;
53263;SDS011;39153;52.680;6.172;2024-01-07T12:33:46;4.55;;;1.85;;
53263;SDS011;39153;52.680;6.172;2024-01-07T12:36:12;3.72;;;1.30;;
53263;SDS011;39153;52.680;6.172;2024-01-07T12:38:38;4.28;;;1.48;;
53263;SDS011;39153;52.680;6.172;2024-01-07T12:41:04;5.32;;;2.20;;
53263;SDS011;39153;52.680;6.172;2024-01-07T12:43:30;5.32;;;2.22;;
53263;SDS011;39153;52.680;6.172;2024-01-07T12:45:56;3.70;;;1.90;;
53263;SDS011;39153;52.680;6.172;2024-01-07T12:48:23;6.15;;;2.13;;
53263;SDS011;39153;52.680;6.172;2024-01-07T12:50:48;4.40;;;1.55;;
53263;SDS011;39153;52.680;6.172;2024-01-07T12:53:14;3.55;;;1.55;;
53263;SDS011;39153;52.680;6.172;2024-01-07T12:55:40;5.65;;;2.10;;
53263;SDS011;39153;52.680;6.172;2024-01-07T12:58:05;3.15;;;1.73;;
53263;SDS011;39153;52.680;6.172;2024-01-07T13:00:32;5.53;;;1.73;;
53263;SDS011;39153;52.680;6.172;2024-01-07T13:02:59;4.28;;;2.00;;
53263;SDS011;39153;52.680;6.172;2024-01-07T13:05:24;6.45;;;2.53;;
53263;SDS011;39153;52.680;6.172;2024-01-07T13:07:50;5.15;;;1.90;;
53263;SDS011;39153;52.680;6.172;2024-01-07T13:10:16;4.88;;;2.00;;
53263;SDS011;39153;52.680;6.172;2024-01-07T13:12:41;4.78;;;2.00;;
53263;SDS011;39153;52.680;6.172;2024-01-07T13:15:08;4.70;;;2.08;;
53263;SDS011;39153;52.680;6.172;2024-01-07T13:17:33;5.35;;;1.58;;
53263;SDS011;39153;52.680;6.172;2024-01-07T13:19:59;5.43;;;1.98;;
53263;SDS011;39153;52.680;6.172;2024-01-07T13:22:25;3.85;;;1.80;;
53263;SDS011;39153;52.680;6.172;2024-01-07T13:24:51;5.20;;;2.10;;
53263;SDS011;39153;52.680;6.172;2024-01-07T13:27:19;6.53;;;2.10;;
53263;SDS011;39153;52.680;6.172;2024-01-07T13:29:47;4.20;;;1.88;;
53263;SDS011;39153;52.680;6.172;2024-01-07T13:32:13;5.20;;;1.88;;
53263;SDS011;39153;52.680;6.172;2024-01-07T13:34:45;5.40;;;2.17;;
53263;SDS011;39153;52.680;6.172;2024-01-07T13:37:11;7.03;;;1.73;;
53263;SDS011;39153;52.680;6.172;2024-01-07T13:39:37;6.72;;;2.30;;
53263;SDS011;39153;52.680;6.172;2024-01-07T13:42:03;5.22;;;2.50;;
53263;SDS011;39153;52.680;6.172;2024-01-07T13:44:29;5.35;;;2.45;;
53263;SDS011;39153;52.680;6.172;2024-01-07T13:46:55;6.43;;;2.40;;
53263;SDS011;39153;52.680;6.172;2024-01-07T13:49:21;6.45;;;2.47;;
53263;SDS011;39153;52.680;6.172;2024-01-07T13:51:47;6.63;;;2.80;;
53263;SDS011;39153;52.680;6.172;2024-01-07T13:54:12;6.20;;;2.75;;
53263;SDS011;39153;52.680;6.172;2024-01-07T13:56:40;5.30;;;2.35;;
53263;SDS011;39153;52.680;6.172;2024-01-07T13:59:08;5.85;;;2.85;;
53263;SDS011;39153;52.680;6.172;2024-01-07T14:01:34;7.78;;;2.72;;
53263;SDS011;39153;52.680;6.172;2024-01-07T14:03:59;7.03;;;2.95;;
53263;SDS011;39153;52.680;6.172;2024-01-07T14:06:26;4.55;;;2.40;;
53263;SDS011;39153;52.680;6.172;2024-01-07T14:08:52;8.23;;;3.28;;
53263;SDS011;39153;52.680;6.172;2024-01-07T14:11:18;5.13;;;2.45;;
53263;SDS011;39153;52.680;6.172;2024-01-07T14:13:45;4.63;;;2.42;;
53263;SDS011;39153;52.680;6.172;2024-01-07T14:16:11;7.32;;;2.47;;
53263;SDS011;39153;52.680;6.172;2024-01-07T14:18:38;6.25;;;2.55;;
53263;SDS011;39153;52.680;6.172;2024-01-07T14:21:04;7.32;;;2.95;;
53263;SDS011;39153;52.680;6.172;2024-01-07T14:23:30;8.10;;;2.47;;
53263;SDS011;39153;52.680;6.172;2024-01-07T14:25:57;5.65;;;2.60;;
53263;SDS011;39153;52.680;6.172;2024-01-07T14:28:23;8.05;;;2.97;;
53263;SDS011;39153;52.680;6.172;2024-01-07T14:30:48;8.82;;;3.20;;
53263;SDS011;39153;52.680;6.172;2024-01-07T14:33:14;6.72;;;2.97;;
53263;SDS011;39153;52.680;6.172;2024-01-07T14:35:40;8.45;;;3.10;;
53263;SDS011;39153;52.680;6.172;2024-01-07T14:38:06;8.15;;;3.50;;